This is the latest recevied weather packets stored in our database for station/object SQ9MHX-13. If no packets are shown the sender has not sent any weather packets the latest 10 day(s).
| Time | Temp. | Humidity | Pressure | Rain* | Wind** | Luminosity | Snow |
|---|---|---|---|---|---|---|---|
| 1778047706 | 18.89° C | 49% | 947.9 hPa | - | 0 m/s | - | - |
| 1778047407 | 18.89° C | 50% | 948.4 hPa | - | 0 m/s | - | - |
| 1778047108 | 18.89° C | 49% | 948.5 hPa | - | 0 m/s | - | - |
| 1778046809 | 18.89° C | 49% | 949 hPa | - | 0 m/s | - | - |
| 1778046510 | 17.78° C | 51% | 949.5 hPa | - | 0 m/s | - | - |
| 1778046211 | 18.89° C | 49% | 949.9 hPa | - | 0 m/s | - | - |
| 1778045613 | 17.78° C | 49% | 952.3 hPa | - | 0 m/s | - | - |
| 1778045016 | 16.11° C | 56% | 955 hPa | - | 0 m/s | - | - |
| 1778044717 | 16.11° C | 56% | 954.3 hPa | - | 0 m/s | - | - |
| 1778043821 | 16.11° C | 54% | 955.6 hPa | - | 0 m/s | - | - |
| 1778043224 | 15° C | 55% | 956.2 hPa | - | 0 m/s | - | - |
| 1778042925 | 15° C | 54% | 956.3 hPa | - | 0 m/s | - | - |
| 1778042629 | 15° C | 56% | - | - | 0 m/s | - | - |
| 1778042627 | 15° C | 56% | 956.5 hPa | - | 0 m/s | - | - |
| 1778042328 | 13.89° C | 59% | 956.5 hPa | - | 0 m/s | - | - |
| 1778042029 | 15° C | 57% | 956 hPa | - | 0 m/s | - | - |
| 1778041731 | 15° C | 53% | 955.6 hPa | - | 0 m/s | - | - |
| 1778041133 | 17.22° C | 48% | 952.7 hPa | - | 0 m/s | - | - |
| 1778040835 | 17.78° C | 46% | 953.1 hPa | - | 0 m/s | - | - |
| 1778040537 | 17.22° C | 49% | 954.1 hPa | - | 0 m/s | - | - |
| 1778040237 | 16.11° C | 49% | 955.5 hPa | - | 0 m/s | - | - |
| 1778039939 | 15° C | 54% | 956.7 hPa | - | 0 m/s | - | - |
| 1778039341 | 12.78° C | 58% | 958.1 hPa | - | 0 m/s | - | - |
| 1778039043 | 13.89° C | 59% | 958 hPa | - | 0 m/s | - | - |
| 1778038147 | 12.78° C | 58% | 958.8 hPa | - | 0 m/s | - | - |
* Rain since midnight (hover to see other rain measurements)
** Current wind speed in m/s (hover to see current wind gust speed)